createdAt,value
2023-01-17T00:00:15.635Z,101499.94
2023-01-17T00:02:45.607Z,101500.78
2023-01-17T00:05:32.725Z,101503.91
2023-01-17T00:08:19.681Z,101512.28
2023-01-17T00:10:52.091Z,101516.22
2023-01-17T00:13:22.588Z,101513.75
2023-01-17T00:15:53.535Z,101520.16
2023-01-17T00:18:24.008Z,101532.16
2023-01-17T00:21:22.641Z,101531.34
2023-01-17T00:24:09.627Z,101541.22
2023-01-17T00:26:54.437Z,101531.19
2023-01-17T00:29:22.771Z,101524.25
2023-01-17T00:31:51.177Z,101515.03
2023-01-17T00:34:19.537Z,101514.53
2023-01-17T00:36:48.173Z,101509.91
2023-01-17T00:39:16.570Z,101506.59
2023-01-17T00:41:46.918Z,101494.94
2023-01-17T00:44:33.827Z,101494.94
2023-01-17T00:47:20.879Z,101506.44
2023-01-17T00:50:07.981Z,101500.31
2023-01-17T00:52:55.489Z,101496.22
2023-01-17T00:55:43.054Z,101493.25
2023-01-17T00:58:31.821Z,101511.50
2023-01-17T01:01:18.855Z,101500.13
2023-01-17T01:04:05.987Z,101506.03
2023-01-17T01:06:53.275Z,101511.09
2023-01-17T01:09:40.122Z,101513.41
2023-01-17T01:12:27.283Z,101509.25
2023-01-17T01:15:15.860Z,101509.59
2023-01-17T01:18:02.768Z,101512.41
2023-01-17T01:20:49.680Z,101517.97
2023-01-17T01:23:36.726Z,101528.34
2023-01-17T01:26:23.955Z,101518.31
2023-01-17T01:29:11.125Z,101530.31
2023-01-17T01:31:59.358Z,101534.25
2023-01-17T01:34:29.359Z,101539.03
2023-01-17T01:36:59.274Z,101551.50
2023-01-17T01:39:29.621Z,101550.72
2023-01-17T01:42:00.106Z,101550.38
2023-01-17T01:44:49.768Z,101553.69
2023-01-17T01:47:31.604Z,101560.09
2023-01-17T01:50:04.583Z,101557.00
2023-01-17T01:52:40.238Z,101556.66
2023-01-17T01:55:18.040Z,101553.53
2023-01-17T01:57:55.339Z,101555.53
2023-01-17T02:00:32.016Z,101561.91
2023-01-17T02:03:12.450Z,101562.44
2023-01-17T02:05:44.977Z,101555.19
2023-01-17T02:08:19.648Z,101553.53
2023-01-17T02:10:50.668Z,101553.88
2023-01-17T02:13:23.949Z,101550.22
2023-01-17T02:16:06.512Z,101549.09
2023-01-17T02:18:53.663Z,101551.88
2023-01-17T02:21:31.343Z,101552.22
2023-01-17T02:24:58.927Z,101542.19
2023-01-17T02:27:36.169Z,101553.34
2023-01-17T02:30:34.836Z,101556.47
2023-01-17T02:33:24.208Z,101559.28
2023-01-17T02:36:08.421Z,101564.03
2023-01-17T02:38:49.406Z,101575.19
2023-01-17T02:41:24.848Z,101574.06
2023-01-17T02:43:56.708Z,101574.91
2023-01-17T02:46:29.357Z,101578.50
2023-01-17T02:49:01.002Z,101587.22
2023-01-17T02:51:50.322Z,101598.41
2023-01-17T02:54:51.145Z,101594.75
2023-01-17T02:57:45.166Z,101596.22
2023-01-17T03:00:27.737Z,101600.16
2023-01-17T03:03:16.848Z,101596.56
2023-01-17T03:05:54.974Z,101607.41
2023-01-17T03:08:26.833Z,101605.44
2023-01-17T03:10:58.179Z,101616.31
2023-01-17T03:13:28.564Z,101615.47
2023-01-17T03:15:59.145Z,101609.41
2023-01-17T03:18:31.574Z,101621.72
2023-01-17T03:21:02.017Z,101620.06
2023-01-17T03:23:32.614Z,101623.16
2023-01-17T03:26:03.078Z,101624.00
2023-01-17T03:28:32.993Z,101620.69
2023-01-17T03:31:03.593Z,101622.97
2023-01-17T03:33:35.231Z,101624.44
2023-01-17T03:36:05.817Z,101624.75
2023-01-17T03:38:37.883Z,101635.09
2023-01-17T03:41:08.803Z,101636.22
2023-01-17T03:43:39.234Z,101632.28
2023-01-17T03:46:27.020Z,101635.94
2023-01-17T03:48:58.742Z,101632.28
2023-01-17T03:51:28.879Z,101637.06
2023-01-17T03:53:59.452Z,101646.91
2023-01-17T03:56:29.702Z,101642.16
2023-01-17T03:58:59.731Z,101640.16
2023-01-17T04:01:30.357Z,101660.25
2023-01-17T04:04:03.030Z,101658.59
2023-01-17T04:06:33.283Z,101667.28
2023-01-17T04:09:03.626Z,101675.69
2023-01-17T04:11:34.172Z,101668.44
2023-01-17T04:14:04.644Z,101672.69
2023-01-17T04:16:36.097Z,101669.38
2023-01-17T04:19:08.657Z,101679.75
2023-01-17T04:21:38.832Z,101676.44
2023-01-17T04:24:10.961Z,101669.19
2023-01-17T04:26:41.576Z,101675.09
2023-01-17T04:29:12.094Z,101682.97
2023-01-17T04:31:42.133Z,101677.97
2023-01-17T04:34:14.833Z,101683.03
2023-01-17T04:36:45.285Z,101678.56
2023-01-17T04:39:15.901Z,101697.31
2023-01-17T04:41:46.380Z,101695.66
2023-01-17T04:44:17.298Z,101692.69
2023-01-17T04:46:47.767Z,101694.94
2023-01-17T04:49:20.373Z,101695.56
2023-01-17T04:51:50.686Z,101704.59
2023-01-17T04:54:21.329Z,101700.44
2023-01-17T04:56:51.886Z,101703.22
2023-01-17T04:59:22.129Z,101712.44
2023-01-17T05:01:52.673Z,101715.75
2023-01-17T05:04:25.606Z,101723.00
2023-01-17T05:06:56.153Z,101723.81
2023-01-17T05:09:25.978Z,101724.66
2023-01-17T05:11:56.505Z,101729.06
2023-01-17T05:14:26.969Z,101735.50
2023-01-17T05:16:57.892Z,101742.44
2023-01-17T05:19:30.591Z,101749.66
2023-01-17T05:22:04.359Z,101751.34
2023-01-17T05:24:34.900Z,101749.06
2023-01-17T05:27:05.278Z,101758.16
2023-01-17T05:29:35.827Z,101764.16
2023-01-17T05:32:07.240Z,101762.91
2023-01-17T05:34:39.203Z,101760.81
2023-01-17T05:37:09.594Z,101767.78
2023-01-17T05:39:40.394Z,101771.38
2023-01-17T05:42:10.627Z,101766.63
2023-01-17T05:44:41.109Z,101774.19
2023-01-17T05:47:11.159Z,101778.97
2023-01-17T05:49:45.154Z,101784.56
2023-01-17T05:52:16.459Z,101790.44
2023-01-17T05:54:48.073Z,101803.59
2023-01-17T05:57:18.594Z,101810.00
2023-01-17T05:59:49.287Z,101818.91
2023-01-17T06:02:19.786Z,101818.56
2023-01-17T06:04:51.947Z,101821.88
2023-01-17T06:07:22.594Z,101830.47
2023-01-17T06:09:53.098Z,101833.16
2023-01-17T06:12:23.092Z,101829.09
2023-01-17T06:14:53.716Z,101840.59
2023-01-17T06:17:24.208Z,101840.44
2023-01-17T06:19:56.119Z,101835.75
2023-01-17T06:22:26.915Z,101831.47
2023-01-17T06:24:57.513Z,101839.22
2023-01-17T06:27:28.421Z,101838.59
2023-01-17T06:29:59.000Z,101845.47
2023-01-17T06:32:29.585Z,101845.56
2023-01-17T06:35:02.047Z,101847.63
2023-01-17T06:37:32.597Z,101848.03
2023-01-17T06:40:03.118Z,101849.19
2023-01-17T06:42:34.485Z,101857.81
2023-01-17T06:45:04.208Z,101856.78
2023-01-17T06:47:35.115Z,101856.94
2023-01-17T06:50:08.657Z,101863.84
2023-01-17T06:52:39.329Z,101854.19
2023-01-17T06:55:11.850Z,101866.22
2023-01-17T06:57:42.549Z,101868.63
2023-01-17T07:00:15.010Z,101862.56
2023-01-17T07:02:48.381Z,101873.75
2023-01-17T07:05:21.874Z,101869.28
2023-01-17T07:07:52.127Z,101864.84
2023-01-17T07:10:24.717Z,101861.22
2023-01-17T07:13:00.553Z,101870.69
2023-01-17T07:15:31.346Z,101873.31
2023-01-17T07:18:04.804Z,101862.56
2023-01-17T07:20:39.226Z,101861.13
2023-01-17T07:23:09.603Z,101861.97
2023-01-17T07:25:40.181Z,101860.44
2023-01-17T07:28:10.946Z,101851.78
2023-01-17T07:30:41.555Z,101857.69
2023-01-17T07:33:12.093Z,101857.44
2023-01-17T07:35:44.066Z,101859.19
2023-01-17T07:38:19.259Z,101853.28
2023-01-17T07:40:50.098Z,101848.06
2023-01-17T07:43:21.040Z,101856.84
2023-01-17T07:45:54.227Z,101843.84
2023-01-17T07:48:26.417Z,101851.56
2023-01-17T07:51:01.573Z,101841.97
2023-01-17T07:53:33.874Z,101840.81
2023-01-17T07:56:06.453Z,101840.25
2023-01-17T07:58:37.717Z,101832.03
2023-01-17T08:01:11.390Z,101836.84
2023-01-17T08:03:42.646Z,101842.03
2023-01-17T08:06:23.273Z,101830.16
2023-01-17T08:08:55.509Z,101820.19
2023-01-17T08:11:25.972Z,101822.81
2023-01-17T08:13:59.732Z,101823.53
2023-01-17T08:16:31.075Z,101814.94
2023-01-17T08:19:01.658Z,101816.47
2023-01-17T08:21:34.819Z,101811.16
2023-01-17T08:24:05.870Z,101802.06
2023-01-17T08:26:36.429Z,101807.16
2023-01-17T08:29:06.513Z,101803.25
2023-01-17T08:31:38.091Z,101802.13
2023-01-17T08:34:09.662Z,101800.22
2023-01-17T08:36:45.511Z,101791.03
2023-01-17T08:39:16.532Z,101791.22
2023-01-17T08:41:46.692Z,101787.41
2023-01-17T08:44:17.306Z,101777.91
2023-01-17T08:46:47.304Z,101783.38
2023-01-17T08:49:17.494Z,101771.84
2023-01-17T08:51:50.479Z,101769.66
2023-01-17T08:54:20.704Z,101761.78
2023-01-17T08:56:53.249Z,101759.47
2023-01-17T08:59:25.263Z,101757.97
2023-01-17T09:01:58.622Z,101760.34
2023-01-17T09:04:29.235Z,101753.69
2023-01-17T09:07:01.528Z,101752.19
2023-01-17T09:09:32.060Z,101747.44
2023-01-17T09:12:02.967Z,101740.63
2023-01-17T09:14:33.648Z,101740.31
2023-01-17T09:17:06.181Z,101735.19
2023-01-17T09:19:39.437Z,101724.84
2023-01-17T09:22:11.550Z,101731.50
2023-01-17T09:24:42.652Z,101722.69
2023-01-17T09:27:13.112Z,101726.13
2023-01-17T09:29:43.523Z,101724.66
2023-01-17T09:32:13.757Z,101722.44
2023-01-17T09:34:43.596Z,101716.16
2023-01-17T09:37:18.435Z,101714.25
2023-01-17T09:39:49.477Z,101709.56
2023-01-17T09:42:32.025Z,101701.19
2023-01-17T09:45:02.918Z,101703.72
2023-01-17T09:47:44.386Z,101700.25
2023-01-17T09:50:29.843Z,101693.59
2023-01-17T09:53:06.692Z,101689.38
2023-01-17T09:55:44.440Z,101688.03
2023-01-17T09:58:22.002Z,101688.69
2023-01-17T10:01:04.245Z,101690.88
2023-01-17T10:03:52.297Z,101676.13
2023-01-17T10:06:44.960Z,101674.31
2023-01-17T10:09:54.827Z,101673.69
2023-01-17T10:12:35.759Z,101673.00
2023-01-17T10:15:40.072Z,101673.97
2023-01-17T10:18:51.099Z,101659.22
2023-01-17T10:21:36.055Z,101660.59
2023-01-17T10:24:38.001Z,101662.78
2023-01-17T10:27:23.630Z,101648.81
2023-01-17T10:29:54.687Z,101646.25
2023-01-17T10:32:31.886Z,101641.63
2023-01-17T10:35:17.568Z,101650.00
2023-01-17T10:37:48.986Z,101646.63
2023-01-17T10:40:27.132Z,101639.25
2023-01-17T10:43:05.122Z,101636.69
2023-01-17T10:45:44.488Z,101634.50
2023-01-17T10:48:23.310Z,101636.75
2023-01-17T10:51:11.899Z,101645.03
2023-01-17T10:54:02.006Z,101646.00
2023-01-17T10:56:36.427Z,101638.84
2023-01-17T10:59:30.623Z,101639.69
2023-01-17T11:02:01.345Z,101637.00
2023-01-17T11:04:38.203Z,101635.16
2023-01-17T11:07:18.313Z,101639.03
2023-01-17T11:09:50.725Z,101639.25
2023-01-17T11:12:31.996Z,101636.34
2023-01-17T11:15:24.053Z,101630.97
2023-01-17T11:18:07.188Z,101629.91
2023-01-17T11:20:44.992Z,101635.78
2023-01-17T11:23:27.015Z,101624.75
2023-01-17T11:26:04.094Z,101631.41
2023-01-17T11:28:40.792Z,101626.00
2023-01-17T11:31:31.296Z,101632.38
2023-01-17T11:34:20.219Z,101633.75
2023-01-17T11:36:51.597Z,101637.63
2023-01-17T11:39:28.885Z,101639.16
2023-01-17T11:41:59.882Z,101636.59
2023-01-17T11:44:35.276Z,101636.47
2023-01-17T11:47:19.687Z,101633.19
2023-01-17T11:49:51.758Z,101643.50
2023-01-17T11:52:27.730Z,101644.69
2023-01-17T11:54:58.968Z,101642.91
2023-01-17T11:57:33.819Z,101643.16
2023-01-17T12:00:21.441Z,101648.19
2023-01-17T12:03:26.106Z,101648.78
2023-01-17T12:06:05.363Z,101654.28
2023-01-17T12:08:57.141Z,101650.94
2023-01-17T12:11:39.499Z,101652.47
2023-01-17T12:14:27.011Z,101652.34
2023-01-17T12:17:23.062Z,101655.88
2023-01-17T12:20:06.345Z,101664.19
2023-01-17T12:23:00.110Z,101670.88
2023-01-17T12:26:04.171Z,101665.06
2023-01-17T12:29:05.922Z,101670.25
2023-01-17T12:31:47.031Z,101672.59
2023-01-17T12:34:32.730Z,101664.03
2023-01-17T12:37:12.301Z,101668.69
2023-01-17T12:39:58.130Z,101668.19
2023-01-17T12:42:34.886Z,101673.69
2023-01-17T12:45:10.281Z,101671.59
2023-01-17T12:47:48.901Z,101674.41
2023-01-17T12:50:30.493Z,101682.38
2023-01-17T12:53:17.200Z,101683.88
2023-01-17T12:55:55.905Z,101687.88
2023-01-17T12:58:29.781Z,101683.75
2023-01-17T13:01:08.194Z,101690.19
2023-01-17T13:03:57.654Z,101696.50
2023-01-17T13:06:48.775Z,101690.06
2023-01-17T13:09:24.668Z,101698.03
2023-01-17T13:12:01.972Z,101697.19
2023-01-17T13:14:33.611Z,101694.72
2023-01-17T13:17:32.617Z,101694.72
2023-01-17T13:20:15.953Z,101693.75
2023-01-17T13:22:50.271Z,101699.25
2023-01-17T13:25:41.693Z,101699.94
2023-01-17T13:28:26.016Z,101697.78
2023-01-17T13:31:29.399Z,101700.47
2023-01-17T13:34:37.468Z,101705.13
2023-01-17T13:37:39.711Z,101700.53
2023-01-17T13:40:31.826Z,101702.84
2023-01-17T13:43:04.292Z,101701.56
2023-01-17T13:45:37.187Z,101703.56
2023-01-17T13:48:32.596Z,101706.22
2023-01-17T13:51:05.283Z,101708.56
2023-01-17T13:53:57.654Z,101708.06
2023-01-17T13:56:45.232Z,101708.75
2023-01-17T13:59:36.575Z,101715.06
2023-01-17T14:02:38.754Z,101705.31
2023-01-17T14:05:16.440Z,101711.63
2023-01-17T14:07:52.459Z,101719.22
2023-01-17T14:10:36.153Z,101724.03
2023-01-17T14:13:31.344Z,101719.09
2023-01-17T14:16:02.404Z,101721.09
2023-01-17T14:18:41.859Z,101729.03
2023-01-17T14:21:23.936Z,101726.53
2023-01-17T14:24:05.339Z,101732.50
2023-01-17T14:26:59.382Z,101719.97
2023-01-17T14:30:10.485Z,101729.06
2023-01-17T14:32:42.000Z,101735.34
2023-01-17T14:35:25.974Z,101730.09
2023-01-17T14:37:58.086Z,101739.69
2023-01-17T14:40:31.694Z,101729.59
2023-01-17T14:43:07.386Z,101728.78
2023-01-17T14:45:40.742Z,101734.41
2023-01-17T14:48:20.680Z,101737.53
2023-01-17T14:50:52.882Z,101745.16
2023-01-17T14:53:28.521Z,101747.47
2023-01-17T14:56:03.382Z,101749.47
2023-01-17T14:58:37.296Z,101759.06
2023-01-17T15:01:14.596Z,101752.09
2023-01-17T15:03:50.849Z,101756.06
2023-01-17T15:06:25.543Z,101756.38
2023-01-17T15:08:56.025Z,101763.50
2023-01-17T15:11:30.610Z,101762.69
2023-01-17T15:14:06.143Z,101770.63
2023-01-17T15:16:41.533Z,101762.56
2023-01-17T15:19:17.396Z,101761.22
2023-01-17T15:21:51.546Z,101765.19
2023-01-17T15:24:28.083Z,101766.69
2023-01-17T15:26:59.059Z,101772.66
2023-01-17T15:29:33.920Z,101771.34
2023-01-17T15:32:08.693Z,101777.28
2023-01-17T15:34:41.458Z,101778.78
2023-01-17T15:37:30.314Z,101782.75
2023-01-17T15:40:18.479Z,101783.41
2023-01-17T15:42:54.186Z,101786.91
2023-01-17T15:45:31.387Z,101789.72
2023-01-17T15:48:40.866Z,101798.81
2023-01-17T15:51:13.873Z,101799.97
2023-01-17T15:53:45.791Z,101815.16
2023-01-17T15:56:32.323Z,101811.03
2023-01-17T15:59:36.318Z,101817.31
2023-01-17T16:02:07.176Z,101816.34
2023-01-17T16:04:42.819Z,101814.69
2023-01-17T16:07:23.883Z,101819.81
2023-01-17T16:09:53.649Z,101815.34
2023-01-17T16:12:23.755Z,101817.66
2023-01-17T16:15:11.105Z,101830.03
2023-01-17T16:17:46.763Z,101819.50
2023-01-17T16:20:23.907Z,101830.22
2023-01-17T16:22:54.978Z,101823.31
2023-01-17T16:25:34.901Z,101828.91
2023-01-17T16:28:05.776Z,101827.56
2023-01-17T16:30:37.371Z,101825.91
2023-01-17T16:33:07.733Z,101831.88
2023-01-17T16:35:40.721Z,101833.03
2023-01-17T16:38:15.967Z,101837.00
2023-01-17T16:40:49.051Z,101838.16
2023-01-17T16:43:22.371Z,101839.28
2023-01-17T16:45:56.359Z,101840.75
2023-01-17T16:48:36.692Z,101837.16
2023-01-17T16:51:11.777Z,101843.91
2023-01-17T16:53:41.981Z,101840.59
2023-01-17T16:56:16.360Z,101838.94
2023-01-17T16:58:47.629Z,101848.53
2023-01-17T17:01:23.043Z,101839.63
2023-01-17T17:03:54.764Z,101841.94
2023-01-17T17:06:28.289Z,101847.03
2023-01-17T17:08:59.077Z,101851.00
2023-01-17T17:11:45.845Z,101849.69
2023-01-17T17:14:17.601Z,101850.84
2023-01-17T17:16:50.175Z,101856.78
2023-01-17T17:19:22.459Z,101854.28
2023-01-17T17:21:55.884Z,101859.09
2023-01-17T17:24:26.933Z,101869.81
2023-01-17T17:26:57.942Z,101860.06
2023-01-17T17:29:30.058Z,101866.84
2023-01-17T17:32:00.072Z,101854.31
2023-01-17T17:34:32.388Z,101859.91
2023-01-17T17:37:04.782Z,101855.75
2023-01-17T17:39:35.190Z,101858.91
2023-01-17T17:42:06.493Z,101858.41
2023-01-17T17:44:37.638Z,101856.75
2023-01-17T17:47:08.737Z,101856.25
2023-01-17T17:49:39.459Z,101854.63
2023-01-17T17:52:12.303Z,101858.56
2023-01-17T17:54:47.398Z,101858.88
2023-01-17T17:57:20.369Z,101857.56
2023-01-17T17:59:50.941Z,101860.19
2023-01-17T18:02:20.851Z,101857.72
2023-01-17T18:04:51.084Z,101864.50
2023-01-17T18:07:22.935Z,101862.84
2023-01-17T18:09:54.828Z,101860.34
2023-01-17T18:12:25.236Z,101859.03
2023-01-17T18:14:56.049Z,101862.97
2023-01-17T18:17:27.183Z,101859.69
2023-01-17T18:19:57.518Z,101870.06
2023-01-17T18:22:30.735Z,101871.22
2023-01-17T18:25:02.105Z,101867.09
2023-01-17T18:27:34.127Z,101877.47
2023-01-17T18:30:06.459Z,101875.84
2023-01-17T18:32:39.505Z,101871.38
2023-01-17T18:35:10.623Z,101876.16
2023-01-17T18:37:43.627Z,101882.09
2023-01-17T18:40:16.641Z,101881.25
2023-01-17T18:42:47.531Z,101887.19
2023-01-17T18:45:18.389Z,101884.69
2023-01-17T18:47:48.605Z,101875.78
2023-01-17T18:50:19.349Z,101876.09
2023-01-17T18:52:52.658Z,101876.41
2023-01-17T18:55:23.446Z,101882.34
2023-01-17T18:57:53.482Z,101875.44
2023-01-17T19:00:25.580Z,101881.03
2023-01-17T19:02:56.596Z,101890.59
2023-01-17T19:05:27.731Z,101889.28
2023-01-17T19:08:00.712Z,101888.44
2023-01-17T19:10:30.734Z,101889.91
2023-01-17T19:13:01.314Z,101891.88
2023-01-17T19:15:33.750Z,101889.41
2023-01-17T19:18:04.274Z,101892.53
2023-01-17T19:20:37.745Z,101890.03
2023-01-17T19:23:10.471Z,101886.41
2023-01-17T19:25:43.767Z,101889.84
2023-01-17T19:28:14.815Z,101887.41
2023-01-17T19:30:45.317Z,101887.69
2023-01-17T19:33:15.728Z,101883.28
2023-01-17T19:35:45.840Z,101889.19
2023-01-17T19:38:19.178Z,101887.53
2023-01-17T19:40:49.596Z,101896.25
2023-01-17T19:43:21.373Z,101892.66
2023-01-17T19:46:01.152Z,101891.00
2023-01-17T19:48:32.500Z,101888.47
2023-01-17T19:51:08.716Z,101890.78
2023-01-17T19:53:43.479Z,101889.97
2023-01-17T19:56:19.350Z,101886.13
2023-01-17T19:58:50.894Z,101883.16
2023-01-17T20:01:25.610Z,101881.84
2023-01-17T20:03:58.024Z,101881.31
2023-01-17T20:06:32.065Z,101874.06
2023-01-17T20:09:05.753Z,101875.22
2023-01-17T20:11:37.747Z,101876.38
2023-01-17T20:14:07.923Z,101888.72
2023-01-17T20:16:39.540Z,101882.28
2023-01-17T20:19:10.119Z,101886.22
2023-01-17T20:21:41.534Z,101880.16
2023-01-17T20:24:17.947Z,101881.28
2023-01-17T20:26:59.527Z,101876.84
2023-01-17T20:29:29.918Z,101881.09
2023-01-17T20:32:00.863Z,101876.66
2023-01-17T20:34:32.042Z,101880.59
2023-01-17T20:37:20.238Z,101886.50
2023-01-17T20:39:54.502Z,101896.06
2023-01-17T20:42:24.837Z,101889.13
2023-01-17T20:45:05.304Z,101886.31
2023-01-17T20:47:42.204Z,101894.53
2023-01-17T20:50:14.011Z,101890.06
2023-01-17T20:52:45.199Z,101887.59
2023-01-17T20:55:18.217Z,101888.72
2023-01-17T20:57:58.280Z,101882.63
2023-01-17T21:00:30.635Z,101882.63
2023-01-17T21:03:01.104Z,101875.69
2023-01-17T21:05:31.620Z,101883.56
2023-01-17T21:08:04.229Z,101879.97
2023-01-17T21:10:36.746Z,101871.84
2023-01-17T21:13:06.657Z,101884.19
2023-01-17T21:15:37.627Z,101888.16
2023-01-17T21:18:08.498Z,101891.28
2023-01-17T21:20:39.027Z,101895.22
2023-01-17T21:23:09.837Z,101893.56
2023-01-17T21:25:41.512Z,101890.28
2023-01-17T21:28:12.277Z,101890.56
2023-01-17T21:30:43.482Z,101892.56
2023-01-17T21:33:13.624Z,101884.47
2023-01-17T21:35:45.219Z,101891.19
2023-01-17T21:38:16.475Z,101886.78
2023-01-17T21:40:48.502Z,101889.06
2023-01-17T21:43:21.216Z,101885.75
2023-01-17T21:45:52.844Z,101885.22
2023-01-17T21:48:23.472Z,101876.00
2023-01-17T21:50:53.358Z,101872.69
2023-01-17T21:53:23.874Z,101874.97
2023-01-17T21:56:18.406Z,101867.72
2023-01-17T21:58:54.117Z,101865.88
2023-01-17T22:01:25.883Z,101853.69
2023-01-17T22:03:59.109Z,101850.88
2023-01-17T22:06:32.027Z,101854.84
2023-01-17T22:09:02.573Z,101851.19
2023-01-17T22:11:34.696Z,101850.38
2023-01-17T22:14:07.901Z,101850.66
2023-01-17T22:16:38.012Z,101849.03
2023-01-17T22:19:08.765Z,101854.94
2023-01-17T22:21:39.456Z,101859.41
2023-01-17T22:24:12.076Z,101855.78
2023-01-17T22:26:44.560Z,101855.25
2023-01-17T22:29:18.756Z,101848.00
2023-01-17T22:31:49.383Z,101856.41
2023-01-17T22:34:19.700Z,101853.94
2023-01-17T22:36:49.900Z,101850.28
2023-01-17T22:39:20.213Z,101852.28
2023-01-17T22:41:52.445Z,101847.31
2023-01-17T22:44:22.770Z,101845.97
2023-01-17T22:46:52.590Z,101851.38
2023-01-17T22:49:23.885Z,101856.13
2023-01-17T22:51:54.305Z,101854.47
2023-01-17T22:54:25.000Z,101863.19
2023-01-17T22:56:57.276Z,101859.06
2023-01-17T22:59:27.796Z,101862.16
2023-01-17T23:01:57.737Z,101856.91
2023-01-17T23:04:28.790Z,101854.09
2023-01-17T23:06:59.165Z,101851.63
2023-01-17T23:09:29.215Z,101852.75
2023-01-17T23:12:01.324Z,101851.91
2023-01-17T23:14:54.821Z,101852.22
2023-01-17T23:17:43.522Z,101851.69
2023-01-17T23:20:15.359Z,101851.19
2023-01-17T23:22:45.604Z,101858.75
2023-01-17T23:25:16.582Z,101853.50
2023-01-17T23:28:06.129Z,101858.25
2023-01-17T23:30:41.940Z,101854.63
2023-01-17T23:33:15.057Z,101852.97
2023-01-17T23:35:47.404Z,101865.28
2023-01-17T23:38:34.436Z,101860.84
2023-01-17T23:41:24.304Z,101863.97
2023-01-17T23:43:58.563Z,101856.72
2023-01-17T23:46:30.422Z,101858.66
2023-01-17T23:49:00.613Z,101849.75
2023-01-17T23:51:32.338Z,101855.66
2023-01-17T23:54:05.707Z,101857.13
2023-01-17T23:56:35.843Z,101859.09
2023-01-17T23:59:07.615Z,101858.28
